createdAt,value
2017-12-02T00:00:04.172Z,24.40
2017-12-02T00:01:07.408Z,23.77
2017-12-02T00:02:10.635Z,23.73
2017-12-02T00:03:15.859Z,23.58
2017-12-02T00:04:18.364Z,25.17
2017-12-02T00:05:20.840Z,23.73
2017-12-02T00:06:23.298Z,23.77
2017-12-02T00:07:26.531Z,23.20
2017-12-02T00:10:02.283Z,23.90
2017-12-02T00:11:04.742Z,23.73
2017-12-02T00:12:07.229Z,23.60
2017-12-02T00:13:10.710Z,24.73
2017-12-02T00:14:13.196Z,25.15
2017-12-02T00:15:15.704Z,25.10
2017-12-02T00:16:18.168Z,23.62
2017-12-02T00:17:21.394Z,24.15
2017-12-02T00:18:24.676Z,22.73
2017-12-02T00:19:27.192Z,24.30
2017-12-02T00:20:30.426Z,23.42
2017-12-02T00:21:33.663Z,23.48
2017-12-02T00:22:36.154Z,23.67
2017-12-02T00:23:39.251Z,23.70
2017-12-02T00:24:41.730Z,25.75
2017-12-02T00:25:44.218Z,22.90
2017-12-02T00:26:46.755Z,24.17
2017-12-02T00:27:49.235Z,24.00
2017-12-02T00:28:52.471Z,25.52
2017-12-02T00:29:55.730Z,24.37
2017-12-02T00:30:58.217Z,24.00
2017-12-02T00:32:00.786Z,23.05
2017-12-02T00:33:03.301Z,23.73
2017-12-02T00:34:06.558Z,24.00
2017-12-02T00:35:09.058Z,24.20
2017-12-02T00:36:12.319Z,23.70
2017-12-02T00:37:14.796Z,23.35
2017-12-02T00:38:17.260Z,23.65
2017-12-02T00:39:20.523Z,23.80
2017-12-02T00:40:22.990Z,22.20
2017-12-02T00:41:25.482Z,23.20
2017-12-02T00:42:27.990Z,24.50
2017-12-02T00:43:30.441Z,24.85
2017-12-02T00:44:33.775Z,23.10
2017-12-02T00:45:36.238Z,22.60
2017-12-02T00:46:40.258Z,21.77
2017-12-02T00:47:42.719Z,23.95
2017-12-02T00:48:46.701Z,24.02
2017-12-02T00:49:51.118Z,24.08
2017-12-02T00:50:53.652Z,22.80
2017-12-02T00:51:56.162Z,24.10
2017-12-02T00:52:58.638Z,24.98
2017-12-02T00:54:01.097Z,23.55
2017-12-02T00:55:05.198Z,23.48
2017-12-02T00:56:07.713Z,24.20
2017-12-02T00:57:10.235Z,25.30
2017-12-02T00:58:12.704Z,24.50
2017-12-02T00:59:15.919Z,24.30
2017-12-02T01:00:19.112Z,24.85
2017-12-02T01:01:21.584Z,24.25
2017-12-02T01:02:24.068Z,23.42
2017-12-02T01:03:26.533Z,25.85
2017-12-02T01:04:29.008Z,23.58
2017-12-02T01:05:32.258Z,25.12
2017-12-02T01:06:34.726Z,24.10
2017-12-02T01:07:37.189Z,25.42
2017-12-02T01:08:40.465Z,23.45
2017-12-02T01:09:42.943Z,23.87
2017-12-02T01:10:45.420Z,23.50
2017-12-02T01:11:47.891Z,24.23
2017-12-02T01:12:50.370Z,25.62
2017-12-02T01:13:52.851Z,23.60
2017-12-02T01:14:56.076Z,24.87
2017-12-02T01:15:58.540Z,24.23
2017-12-02T01:17:01.007Z,23.62
2017-12-02T01:18:03.510Z,23.98
2017-12-02T01:19:06.016Z,24.90
2017-12-02T01:20:08.538Z,25.30
2017-12-02T01:21:11.018Z,21.80
2017-12-02T01:22:15.150Z,24.58
2017-12-02T01:23:17.675Z,24.67
2017-12-02T01:24:20.134Z,24.42
2017-12-02T01:25:22.625Z,23.38
2017-12-02T01:26:25.730Z,24.23
2017-12-02T01:27:28.966Z,23.52
2017-12-02T01:28:32.203Z,23.58
2017-12-02T01:29:35.451Z,22.73
2017-12-02T01:30:38.711Z,23.55
2017-12-02T01:31:41.166Z,21.98
2017-12-02T01:32:43.635Z,23.50
2017-12-02T01:33:46.909Z,23.33
2017-12-02T01:34:49.386Z,22.35
2017-12-02T01:35:51.845Z,24.42
2017-12-02T01:36:54.350Z,23.10
2017-12-02T01:37:56.844Z,21.92
2017-12-02T01:38:59.332Z,22.58
2017-12-02T01:40:01.816Z,22.20
2017-12-02T01:41:04.292Z,22.62
2017-12-02T01:42:06.814Z,23.30
2017-12-02T01:43:09.335Z,22.77
2017-12-02T01:44:11.831Z,23.23
2017-12-02T01:45:14.300Z,22.75
2017-12-02T01:46:16.811Z,23.87
2017-12-02T01:47:19.281Z,22.65
2017-12-02T01:48:21.902Z,23.87
2017-12-02T01:49:24.376Z,23.12
2017-12-02T01:50:26.839Z,23.90
2017-12-02T01:51:29.434Z,24.08
2017-12-02T01:52:31.902Z,24.15
2017-12-02T01:53:34.371Z,22.15
2017-12-02T01:54:37.805Z,24.23
2017-12-02T01:55:40.287Z,23.05
2017-12-02T01:56:42.790Z,26.27
2017-12-02T01:57:45.261Z,24.48
2017-12-02T01:58:47.887Z,24.40
2017-12-02T01:59:50.360Z,23.15
2017-12-02T02:00:52.856Z,24.48
2017-12-02T02:01:55.386Z,24.02
2017-12-02T02:02:58.615Z,24.12
2017-12-02T02:04:01.938Z,23.77
2017-12-02T02:05:04.400Z,25.30
2017-12-02T02:06:07.629Z,24.87
2017-12-02T02:07:10.192Z,24.75
2017-12-02T02:08:12.639Z,24.65
2017-12-02T02:09:15.115Z,23.30
2017-12-02T02:10:18.374Z,25.00
2017-12-02T02:11:20.864Z,23.77
2017-12-02T02:12:23.338Z,23.20
2017-12-02T02:13:25.826Z,25.50
2017-12-02T02:14:29.042Z,25.67
2017-12-02T02:15:31.542Z,24.25
2017-12-02T02:16:34.019Z,23.05
2017-12-02T02:17:36.574Z,26.80
2017-12-02T02:18:39.053Z,24.08
2017-12-02T02:19:41.502Z,25.02
2017-12-02T02:20:44.725Z,23.95
2017-12-02T02:21:48.685Z,24.20
2017-12-02T02:22:51.250Z,24.20
2017-12-02T02:23:53.735Z,25.58
2017-12-02T02:24:56.294Z,24.58
2017-12-02T02:25:58.754Z,25.60
2017-12-02T02:27:01.215Z,24.55
2017-12-02T02:28:03.726Z,23.48
2017-12-02T02:29:06.955Z,23.80
2017-12-02T02:30:09.449Z,24.02
2017-12-02T02:31:12.295Z,24.77
2017-12-02T02:32:14.756Z,23.58
2017-12-02T02:33:17.238Z,22.50
2017-12-02T02:34:19.704Z,24.40
2017-12-02T02:35:22.172Z,22.58
2017-12-02T02:36:24.711Z,22.85
2017-12-02T02:37:27.198Z,22.87
2017-12-02T02:38:29.657Z,23.33
2017-12-02T02:39:32.126Z,23.85
2017-12-02T02:40:34.592Z,24.55
2017-12-02T02:41:37.822Z,24.10
2017-12-02T02:42:41.066Z,22.98
2017-12-02T02:43:44.291Z,23.42
2017-12-02T02:44:46.770Z,23.15
2017-12-02T02:45:49.274Z,23.83
2017-12-02T02:46:51.747Z,24.17
2017-12-02T02:47:54.206Z,24.67
2017-12-02T02:48:57.446Z,24.40
2017-12-02T02:50:00.707Z,21.98
2017-12-02T02:51:03.190Z,23.60
2017-12-02T02:52:05.772Z,23.10
2017-12-02T02:53:08.278Z,23.52
2017-12-02T02:54:11.533Z,22.62
2017-12-02T02:55:14.027Z,24.40
2017-12-02T02:56:16.507Z,22.92
2017-12-02T02:57:18.968Z,22.90
2017-12-02T02:58:21.419Z,22.42
2017-12-02T02:59:24.688Z,22.05
2017-12-02T03:00:27.161Z,23.98
2017-12-02T03:01:29.731Z,22.70
2017-12-02T03:02:32.212Z,22.37
2017-12-02T03:03:34.694Z,22.23
2017-12-02T03:04:37.158Z,24.10
2017-12-02T03:05:39.612Z,22.00
2017-12-02T03:06:42.870Z,22.13
2017-12-02T03:07:45.355Z,22.70
2017-12-02T03:08:47.820Z,24.17
2017-12-02T03:09:50.292Z,23.33
2017-12-02T03:10:52.759Z,21.87
2017-12-02T03:11:55.272Z,22.92
2017-12-02T03:12:58.663Z,22.30
2017-12-02T03:14:01.146Z,21.62
2017-12-02T03:15:04.399Z,22.50
2017-12-02T03:16:06.881Z,22.23
2017-12-02T03:17:09.353Z,21.92
2017-12-02T03:18:11.886Z,20.67
2017-12-02T03:19:14.407Z,21.98
2017-12-02T03:20:16.885Z,22.40
2017-12-02T03:21:19.354Z,22.50
2017-12-02T03:22:21.858Z,22.35
2017-12-02T03:23:25.096Z,22.75
2017-12-02T03:24:27.546Z,21.00
2017-12-02T03:25:30.060Z,21.48
2017-12-02T03:26:33.294Z,23.00
2017-12-02T03:27:36.550Z,21.83
2017-12-02T03:28:39.783Z,21.70
2017-12-02T03:29:43.018Z,20.90
2017-12-02T03:30:46.251Z,22.33
2017-12-02T03:31:48.757Z,22.40
2017-12-02T03:32:51.228Z,21.70
2017-12-02T03:33:54.491Z,21.83
2017-12-02T03:34:57.067Z,22.13
2017-12-02T03:35:59.549Z,21.55
2017-12-02T03:37:02.012Z,21.75
2017-12-02T03:38:04.501Z,20.85
2017-12-02T03:39:07.129Z,21.12
2017-12-02T03:40:09.595Z,21.20
2017-12-02T03:41:12.078Z,22.23
2017-12-02T03:42:14.536Z,22.85
2017-12-02T03:43:17.006Z,23.50
2017-12-02T03:44:19.495Z,21.65
2017-12-02T03:45:21.976Z,21.42
2017-12-02T03:46:24.521Z,21.58
2017-12-02T03:47:26.985Z,22.75
2017-12-02T03:48:30.217Z,20.80
2017-12-02T03:49:32.666Z,21.30
2017-12-02T03:50:35.135Z,21.30
2017-12-02T03:51:37.630Z,22.87
2017-12-02T03:52:40.194Z,22.20
2017-12-02T03:53:42.680Z,20.85
2017-12-02T03:54:45.191Z,21.65
2017-12-02T03:55:48.433Z,22.33
2017-12-02T03:56:51.696Z,22.55
2017-12-02T03:57:54.147Z,22.48
2017-12-02T03:58:56.625Z,23.65
2017-12-02T03:59:59.129Z,22.40
2017-12-02T04:01:02.361Z,23.15
2017-12-02T04:02:04.847Z,21.70
2017-12-02T04:03:07.333Z,22.70
2017-12-02T04:04:10.574Z,20.77
2017-12-02T04:05:13.806Z,22.45
2017-12-02T04:06:17.078Z,23.35
2017-12-02T04:07:19.562Z,21.90
2017-12-02T04:08:22.027Z,21.73
2017-12-02T04:09:24.541Z,22.95
2017-12-02T04:10:27.820Z,22.95
2017-12-02T04:11:30.366Z,23.40
2017-12-02T04:12:33.546Z,22.40
2017-12-02T04:13:36.810Z,23.08
2017-12-02T04:14:39.273Z,21.15
2017-12-02T04:15:41.755Z,21.83
2017-12-02T04:16:44.966Z,23.27
2017-12-02T04:17:47.449Z,21.30
2017-12-02T04:18:49.913Z,22.55
2017-12-02T04:19:53.134Z,22.20
2017-12-02T04:20:55.601Z,21.77
2017-12-02T04:21:58.825Z,21.48
2017-12-02T04:23:01.328Z,22.62
2017-12-02T04:24:03.800Z,22.67
2017-12-02T04:25:06.334Z,21.40
2017-12-02T04:26:08.750Z,20.20
2017-12-02T04:27:11.253Z,22.48
2017-12-02T04:28:14.531Z,22.35
2017-12-02T04:29:16.996Z,20.95
2017-12-02T04:30:19.475Z,20.83
2017-12-02T04:31:21.955Z,22.33
2017-12-02T04:32:24.414Z,21.98
2017-12-02T04:33:26.915Z,20.92
2017-12-02T04:34:30.185Z,21.52
2017-12-02T04:35:33.411Z,20.73
2017-12-02T04:36:36.646Z,21.65
2017-12-02T04:37:39.119Z,22.62
2017-12-02T04:38:41.622Z,21.42
2017-12-02T04:39:44.102Z,20.70
2017-12-02T04:40:46.570Z,21.12
2017-12-02T04:41:49.042Z,22.27
2017-12-02T04:42:51.504Z,21.00
2017-12-02T04:43:54.762Z,22.23
2017-12-02T04:44:57.991Z,21.67
2017-12-02T04:46:01.227Z,22.15
2017-12-02T04:47:04.445Z,20.62
2017-12-02T04:48:06.903Z,20.85
2017-12-02T04:49:10.258Z,21.30
2017-12-02T04:50:13.486Z,20.80
2017-12-02T04:51:16.727Z,20.77
2017-12-02T04:52:19.960Z,21.10
2017-12-02T04:53:23.220Z,21.05
2017-12-02T04:54:26.481Z,20.77
2017-12-02T04:55:28.966Z,21.25
2017-12-02T04:56:31.434Z,21.10
2017-12-02T04:57:33.911Z,21.62
2017-12-02T04:58:36.376Z,21.95
2017-12-02T04:59:38.846Z,21.73
2017-12-02T05:00:41.349Z,22.02
2017-12-02T05:01:43.811Z,21.62
2017-12-02T05:02:46.285Z,20.17
2017-12-02T05:03:48.793Z,22.17
2017-12-02T05:04:51.264Z,21.42
2017-12-02T05:05:53.749Z,21.10
2017-12-02T05:06:56.203Z,22.15
2017-12-02T05:07:58.685Z,22.42
2017-12-02T05:09:01.992Z,21.73
2017-12-02T05:10:04.455Z,20.52
2017-12-02T05:11:07.819Z,22.15
2017-12-02T05:12:10.314Z,20.90
2017-12-02T05:13:13.555Z,19.85
2017-12-02T05:14:16.815Z,22.27
2017-12-02T05:15:19.274Z,21.30
2017-12-02T05:16:21.764Z,20.70
2017-12-02T05:17:24.222Z,22.10
2017-12-02T05:18:26.718Z,19.87
2017-12-02T05:19:29.174Z,22.37
2017-12-02T05:20:32.649Z,20.52
2017-12-02T05:21:36.031Z,22.77
2017-12-02T05:22:38.489Z,21.37
2017-12-02T05:23:40.985Z,21.90
2017-12-02T05:24:43.442Z,22.15
2017-12-02T05:25:45.940Z,20.23
2017-12-02T05:26:48.415Z,21.55
2017-12-02T05:27:52.062Z,21.23
2017-12-02T05:28:54.517Z,20.92
2017-12-02T05:29:57.819Z,19.15
2017-12-02T05:31:00.890Z,21.17
2017-12-02T05:32:04.223Z,20.00
2017-12-02T05:33:06.688Z,21.15
2017-12-02T05:34:09.175Z,21.67
2017-12-02T05:35:11.650Z,20.00
2017-12-02T05:36:14.113Z,21.40
2017-12-02T05:37:16.575Z,20.80
2017-12-02T05:38:19.830Z,21.70
2017-12-02T05:39:22.279Z,20.30
2017-12-02T05:40:24.734Z,21.52
2017-12-02T05:41:27.627Z,22.62
2017-12-02T05:42:30.083Z,21.35
2017-12-02T05:43:32.596Z,22.23
2017-12-02T05:44:35.062Z,22.25
2017-12-02T05:45:38.339Z,22.27
2017-12-02T05:46:40.821Z,23.25
2017-12-02T05:47:43.273Z,23.02
2017-12-02T05:48:45.763Z,22.90
2017-12-02T05:49:49.739Z,22.13
2017-12-02T05:50:52.963Z,22.02
2017-12-02T05:51:55.431Z,21.08
2017-12-02T05:52:57.953Z,22.37
2017-12-02T05:54:00.524Z,21.90
2017-12-02T05:55:02.969Z,21.92
2017-12-02T05:56:05.425Z,21.35
2017-12-02T05:57:07.901Z,23.20
2017-12-02T05:58:11.410Z,21.40
2017-12-02T05:59:14.630Z,22.77
2017-12-02T06:00:17.987Z,21.65
2017-12-02T06:01:20.522Z,22.35
2017-12-02T06:02:23.041Z,23.27
2017-12-02T06:03:25.513Z,22.73
2017-12-02T06:04:27.986Z,24.65
2017-12-02T06:05:30.483Z,22.58
2017-12-02T06:06:32.958Z,23.17
2017-12-02T06:07:35.466Z,22.45
2017-12-02T06:08:37.941Z,21.92
2017-12-02T06:09:40.422Z,22.55
2017-12-02T06:10:42.902Z,21.75
2017-12-02T06:11:45.401Z,22.17
2017-12-02T06:12:47.890Z,23.73
2017-12-02T06:13:50.370Z,23.05
2017-12-02T06:14:52.848Z,23.25
2017-12-02T06:15:55.310Z,22.67
2017-12-02T06:16:57.806Z,23.52
2017-12-02T06:18:00.286Z,22.58
2017-12-02T06:19:02.760Z,23.85
2017-12-02T06:20:05.243Z,23.48
2017-12-02T06:21:08.482Z,23.38
2017-12-02T06:22:11.729Z,22.52
2017-12-02T06:23:14.956Z,22.95
2017-12-02T06:24:17.426Z,23.40
2017-12-02T06:25:19.905Z,23.27
2017-12-02T06:26:22.366Z,22.45
2017-12-02T06:27:24.822Z,23.65
2017-12-02T06:28:27.303Z,23.55
2017-12-02T06:29:30.552Z,22.27
2017-12-02T06:30:33.038Z,23.90
2017-12-02T06:31:35.533Z,22.30
2017-12-02T06:32:38.022Z,25.23
2017-12-02T06:33:41.278Z,23.95
2017-12-02T06:34:43.741Z,23.33
2017-12-02T06:35:46.291Z,24.23
2017-12-02T06:36:48.865Z,23.10
2017-12-02T06:37:51.339Z,23.60
2017-12-02T06:38:53.840Z,24.20
2017-12-02T06:39:56.444Z,23.85
2017-12-02T06:40:58.977Z,23.55
2017-12-02T06:42:01.454Z,22.95
2017-12-02T06:43:03.962Z,23.25
2017-12-02T06:44:06.441Z,23.70
2017-12-02T06:45:09.109Z,22.83
2017-12-02T06:46:11.570Z,22.52
2017-12-02T06:47:14.863Z,22.42
2017-12-02T06:48:17.366Z,22.58
2017-12-02T06:49:19.833Z,22.60
2017-12-02T06:50:22.375Z,22.87
2017-12-02T06:51:24.931Z,21.12
2017-12-02T06:52:27.409Z,21.55
2017-12-02T06:53:30.668Z,22.80
2017-12-02T06:54:33.388Z,22.95
2017-12-02T06:55:36.100Z,21.87
2017-12-02T06:56:38.566Z,22.02
2017-12-02T06:57:41.800Z,22.65
2017-12-02T06:58:45.179Z,21.77
2017-12-02T06:59:47.702Z,22.52
2017-12-02T07:00:50.374Z,24.00
2017-12-02T07:01:52.996Z,22.40
2017-12-02T07:02:55.470Z,23.12
2017-12-02T07:03:57.968Z,23.80
2017-12-02T07:05:00.460Z,22.40
2017-12-02T07:06:03.018Z,22.25
2017-12-02T07:07:05.586Z,21.95
2017-12-02T07:08:08.213Z,22.50
2017-12-02T07:09:10.686Z,22.98
2017-12-02T07:10:13.175Z,22.60
2017-12-02T07:11:15.647Z,23.35
2017-12-02T07:12:18.167Z,23.65
2017-12-02T07:13:21.393Z,22.77
2017-12-02T07:14:23.895Z,24.55
2017-12-02T07:15:26.382Z,23.05
2017-12-02T07:16:28.986Z,23.20
2017-12-02T07:17:31.480Z,22.87
2017-12-02T07:18:33.945Z,23.67
2017-12-02T07:19:37.182Z,23.35
2017-12-02T07:20:39.646Z,23.00
2017-12-02T07:21:42.145Z,23.12
2017-12-02T07:22:44.690Z,22.30
2017-12-02T07:23:47.123Z,22.33
2017-12-02T07:24:49.607Z,21.05
2017-12-02T07:25:52.081Z,21.77
2017-12-02T07:26:54.568Z,22.75
2017-12-02T07:27:57.089Z,23.08
2017-12-02T07:28:59.578Z,22.92
2017-12-02T07:30:02.134Z,21.55
2017-12-02T07:31:04.635Z,22.15
2017-12-02T07:32:07.073Z,22.27
2017-12-02T07:33:09.531Z,22.20
2017-12-02T07:34:12.819Z,22.77
2017-12-02T07:35:15.290Z,23.95
2017-12-02T07:36:17.841Z,23.12
2017-12-02T07:37:20.303Z,22.15
2017-12-02T07:38:22.778Z,23.15
2017-12-02T07:39:26.036Z,22.50
2017-12-02T07:40:28.510Z,23.02
2017-12-02T07:41:30.988Z,21.55
2017-12-02T07:42:33.459Z,24.40
2017-12-02T07:43:35.919Z,21.95
2017-12-02T07:44:39.169Z,23.30
2017-12-02T07:45:41.676Z,23.65
2017-12-02T07:46:44.899Z,22.77
2017-12-02T07:47:47.494Z,21.00
2017-12-02T07:48:49.978Z,22.40
2017-12-02T07:49:53.226Z,22.80
2017-12-02T07:50:56.450Z,22.62
2017-12-02T07:51:59.695Z,23.27
2017-12-02T07:53:02.917Z,23.90
2017-12-02T07:54:05.429Z,22.60
2017-12-02T07:55:08.071Z,21.95
2017-12-02T07:56:10.526Z,22.52
2017-12-02T07:57:13.788Z,21.73
2017-12-02T07:58:16.276Z,23.27
2017-12-02T07:59:18.736Z,22.52
2017-12-02T08:00:21.224Z,24.35
2017-12-02T08:01:23.770Z,23.58
2017-12-02T08:02:27.027Z,22.98
2017-12-02T08:03:29.493Z,22.58
2017-12-02T08:04:32.114Z,22.80
2017-12-02T08:05:34.746Z,22.92
2017-12-02T08:06:37.421Z,22.48
2017-12-02T08:07:40.655Z,23.95
2017-12-02T08:08:43.951Z,21.85
2017-12-02T08:09:47.468Z,23.67
2017-12-02T08:10:50.053Z,21.92
2017-12-02T08:11:52.577Z,22.77
2017-12-02T08:12:55.078Z,23.80
2017-12-02T08:13:57.788Z,21.10
2017-12-02T08:15:00.402Z,21.60
2017-12-02T08:16:02.918Z,22.25
2017-12-02T08:17:07.515Z,21.48
2017-12-02T08:18:12.896Z,22.50
2017-12-02T08:19:16.542Z,21.10
2017-12-02T08:20:19.316Z,21.55
2017-12-02T08:21:22.363Z,21.90
2017-12-02T08:22:25.712Z,20.80
2017-12-02T08:23:28.621Z,21.83
2017-12-02T08:24:31.358Z,22.98
2017-12-02T08:25:33.843Z,20.90
2017-12-02T08:26:37.169Z,21.40
2017-12-02T08:27:40.502Z,21.00
2017-12-02T08:28:42.999Z,20.33
2017-12-02T08:29:45.626Z,20.83
2017-12-02T08:30:48.315Z,21.30
2017-12-02T08:31:52.996Z,22.83
2017-12-02T08:32:55.514Z,21.08
2017-12-02T08:33:58.730Z,22.02
2017-12-02T08:35:01.527Z,20.45
2017-12-02T08:36:04.035Z,21.12
2017-12-02T08:37:06.528Z,20.67
2017-12-02T08:38:09.878Z,20.50
2017-12-02T08:39:13.144Z,19.73
2017-12-02T08:40:15.769Z,20.50
2017-12-02T08:41:18.309Z,22.98
2017-12-02T08:42:20.786Z,22.08
2017-12-02T08:43:23.647Z,21.20
2017-12-02T08:44:26.359Z,20.50
2017-12-02T08:45:29.690Z,21.60
2017-12-02T08:46:32.290Z,21.90
2017-12-02T08:47:35.129Z,21.37
2017-12-02T08:48:37.747Z,21.02
2017-12-02T08:49:40.990Z,21.87
2017-12-02T08:50:43.521Z,21.10
2017-12-02T08:51:46.106Z,20.30
2017-12-02T08:52:50.123Z,21.75
2017-12-02T08:53:52.610Z,20.70
2017-12-02T08:54:55.190Z,20.92
2017-12-02T08:55:57.759Z,22.17
2017-12-02T08:57:00.411Z,21.60
2017-12-02T08:58:02.895Z,22.42
2017-12-02T08:59:06.156Z,22.73
2017-12-02T09:00:08.659Z,20.58
2017-12-02T09:01:11.943Z,20.90
2017-12-02T09:02:14.454Z,21.33
2017-12-02T09:03:16.976Z,22.45
2017-12-02T09:04:19.561Z,23.00
2017-12-02T09:05:22.218Z,21.95
2017-12-02T09:06:24.736Z,22.90
2017-12-02T09:07:28.945Z,20.25
2017-12-02T09:08:31.421Z,22.13
2017-12-02T09:09:34.719Z,21.85
2017-12-02T09:10:37.500Z,21.80
2017-12-02T09:11:40.792Z,22.08
2017-12-02T09:12:43.274Z,21.75
2017-12-02T09:13:46.504Z,21.80
2017-12-02T09:14:49.734Z,22.10
2017-12-02T09:15:52.993Z,21.50
2017-12-02T09:16:56.226Z,22.92
2017-12-02T09:17:59.458Z,26.70
2017-12-02T09:19:01.931Z,22.65
2017-12-02T09:20:04.382Z,23.27
2017-12-02T09:21:06.943Z,41.03
2017-12-02T09:22:10.216Z,33.65
2017-12-02T09:23:12.687Z,23.60
2017-12-02T09:24:15.158Z,21.30
2017-12-02T09:25:17.630Z,21.67
2017-12-02T09:26:20.150Z,22.67
2017-12-02T09:27:23.991Z,22.65
2017-12-02T09:28:26.467Z,23.70
2017-12-02T09:29:29.743Z,21.15
2017-12-02T09:30:32.290Z,21.70
2017-12-02T09:31:34.766Z,22.27
2017-12-02T09:32:38.057Z,21.85
2017-12-02T09:33:40.561Z,22.92
2017-12-02T09:34:43.041Z,21.55
2017-12-02T09:35:45.692Z,23.38
2017-12-02T09:36:48.197Z,24.60
2017-12-02T09:37:50.696Z,20.77
2017-12-02T09:38:53.204Z,21.50
2017-12-02T09:39:55.686Z,23.05
2017-12-02T09:40:58.910Z,23.75
2017-12-02T09:42:01.409Z,23.45
2017-12-02T09:43:04.007Z,22.05
2017-12-02T09:44:06.465Z,23.15
2017-12-02T09:45:08.968Z,30.23
2017-12-02T09:46:11.454Z,22.80
2017-12-02T09:47:14.779Z,22.13
2017-12-02T09:48:17.252Z,22.23
2017-12-02T09:49:19.839Z,22.98
2017-12-02T09:50:22.352Z,21.70
2017-12-02T09:51:24.856Z,21.12
2017-12-02T09:52:27.321Z,22.98
2017-12-02T09:53:31.398Z,22.58
2017-12-02T09:54:34.821Z,22.15
2017-12-02T09:55:37.394Z,20.37
2017-12-02T09:56:39.866Z,22.42
2017-12-02T09:57:42.343Z,22.23
2017-12-02T09:58:44.822Z,21.45
2017-12-02T09:59:48.075Z,23.50
2017-12-02T10:00:50.590Z,22.23
2017-12-02T10:01:53.106Z,21.83
2017-12-02T10:02:55.579Z,22.98
2017-12-02T10:03:58.186Z,22.87
2017-12-02T10:05:00.627Z,22.90
2017-12-02T10:06:03.097Z,22.00
2017-12-02T10:07:05.598Z,22.70
2017-12-02T10:08:08.080Z,22.10
2017-12-02T10:09:11.334Z,22.52
2017-12-02T10:10:14.690Z,23.58
2017-12-02T10:11:17.183Z,23.52
2017-12-02T10:12:20.316Z,22.25
2017-12-02T10:13:22.824Z,22.87
2017-12-02T10:14:25.295Z,22.92
2017-12-02T10:15:28.604Z,23.12
2017-12-02T10:16:31.122Z,23.40
2017-12-02T10:17:33.603Z,22.48
2017-12-02T10:18:36.164Z,22.45
2017-12-02T10:19:38.643Z,22.10
2017-12-02T10:20:41.917Z,23.42
2017-12-02T10:21:44.420Z,23.65
2017-12-02T10:22:46.938Z,23.40
2017-12-02T10:23:50.186Z,23.40
2017-12-02T10:24:52.674Z,23.33
2017-12-02T10:25:55.176Z,23.33
2017-12-02T10:26:57.638Z,21.62
2017-12-02T10:28:00.134Z,23.52
2017-12-02T10:29:02.656Z,22.67
2017-12-02T10:30:05.212Z,22.60
2017-12-02T10:31:08.215Z,22.08
2017-12-02T10:32:10.722Z,23.48
2017-12-02T10:33:13.223Z,23.70
2017-12-02T10:34:16.643Z,23.92
2017-12-02T10:35:19.212Z,23.77
2017-12-02T10:36:21.691Z,21.87
2017-12-02T10:37:24.218Z,22.85
2017-12-02T10:38:26.785Z,23.48
2017-12-02T10:39:29.243Z,24.08
2017-12-02T10:40:31.710Z,24.00
2017-12-02T10:41:34.948Z,22.02
2017-12-02T10:42:37.476Z,22.17
2017-12-02T10:43:40.899Z,24.80
2017-12-02T10:44:43.383Z,23.45
2017-12-02T10:45:45.846Z,23.70
2017-12-02T10:46:49.111Z,23.73
2017-12-02T10:47:51.718Z,23.08
2017-12-02T10:48:54.207Z,23.00
2017-12-02T10:49:56.743Z,22.08
2017-12-02T10:50:59.230Z,22.17
2017-12-02T10:52:01.734Z,27.62
2017-12-02T10:53:04.297Z,25.48
2017-12-02T10:54:06.824Z,23.15
2017-12-02T10:55:09.377Z,24.90
2017-12-02T10:56:12.216Z,21.20
2017-12-02T10:57:14.699Z,20.73
2017-12-02T10:58:17.734Z,21.42
2017-12-02T10:59:20.246Z,21.65
2017-12-02T11:00:23.660Z,21.95
2017-12-02T11:01:26.170Z,20.15
2017-12-02T11:02:28.858Z,20.02
2017-12-02T11:03:32.096Z,18.70
2017-12-02T11:04:36.150Z,18.67
2017-12-02T11:05:39.419Z,15.38
2017-12-02T11:06:41.954Z,14.82
2017-12-02T11:07:44.423Z,14.13
2017-12-02T11:08:46.994Z,14.27
2017-12-02T11:09:49.458Z,15.02
2017-12-02T11:10:51.960Z,13.95
2017-12-02T11:11:54.559Z,14.48
2017-12-02T11:12:57.834Z,14.60
2017-12-02T11:14:01.106Z,14.45
2017-12-02T11:15:03.674Z,16.10
2017-12-02T11:16:06.186Z,16.12
2017-12-02T11:17:09.531Z,17.83
2017-12-02T11:18:12.836Z,17.77
2017-12-02T11:19:16.249Z,19.20
2017-12-02T11:20:18.768Z,18.30
2017-12-02T11:21:21.234Z,17.87
2017-12-02T11:22:23.821Z,19.08
2017-12-02T11:23:26.310Z,18.50
2017-12-02T11:24:28.822Z,17.95
2017-12-02T11:25:31.339Z,19.08
2017-12-02T11:26:33.822Z,19.58
2017-12-02T11:27:36.290Z,19.02
2017-12-02T11:28:38.886Z,18.73
2017-12-02T11:29:41.398Z,19.37
2017-12-02T11:30:43.854Z,19.10
2017-12-02T11:31:46.335Z,17.60
2017-12-02T11:32:49.571Z,16.73
2017-12-02T11:33:52.862Z,18.45
2017-12-02T11:34:55.364Z,19.08
2017-12-02T11:35:57.865Z,18.80
2017-12-02T11:37:01.102Z,18.20
2017-12-02T11:38:04.579Z,18.48
2017-12-02T11:39:07.035Z,18.95
2017-12-02T11:40:09.640Z,18.42
2017-12-02T11:41:12.138Z,17.52
2017-12-02T11:42:15.392Z,19.10
2017-12-02T11:43:17.885Z,17.77
2017-12-02T11:44:20.446Z,18.62
2017-12-02T11:45:22.920Z,17.02
2017-12-02T11:46:25.407Z,17.08
2017-12-02T11:47:27.895Z,17.80
2017-12-02T11:48:31.173Z,17.95
2017-12-02T11:49:33.667Z,18.42
2017-12-02T11:50:36.892Z,17.67
2017-12-02T11:51:39.392Z,17.83
2017-12-02T11:52:41.855Z,17.55
2017-12-02T11:53:45.117Z,17.35
2017-12-02T11:54:48.352Z,17.27
2017-12-02T11:55:50.888Z,17.45
2017-12-02T11:56:54.160Z,17.00
2017-12-02T11:57:56.627Z,17.30
2017-12-02T11:58:59.109Z,16.60
2017-12-02T12:00:01.628Z,17.55
2017-12-02T12:01:04.166Z,17.10
2017-12-02T12:02:06.641Z,16.77
2017-12-02T12:03:09.219Z,16.83
2017-12-02T12:04:11.699Z,16.98
2017-12-02T12:05:15.586Z,16.75
2017-12-02T12:06:18.067Z,17.55
2017-12-02T12:07:21.361Z,17.67
2017-12-02T12:08:23.947Z,16.23
2017-12-02T12:09:27.212Z,16.00
2017-12-02T12:10:29.781Z,16.67
2017-12-02T12:11:32.296Z,15.68
2017-12-02T12:12:34.882Z,17.62
2017-12-02T12:13:37.547Z,17.52
2017-12-02T12:14:39.999Z,17.12
2017-12-02T12:15:42.492Z,16.42
2017-12-02T12:16:45.008Z,18.45
2017-12-02T12:17:47.644Z,16.85
2017-12-02T12:18:50.141Z,17.12
2017-12-02T12:19:52.630Z,17.87
2017-12-02T12:20:55.195Z,16.85
2017-12-02T12:21:57.682Z,16.40
2017-12-02T12:23:00.254Z,16.20
2017-12-02T12:24:03.079Z,16.37
2017-12-02T12:25:05.568Z,16.37
2017-12-02T12:26:08.152Z,27.83
2017-12-02T12:27:10.658Z,15.60
2017-12-02T12:28:13.878Z,26.25
2017-12-02T12:29:17.176Z,27.17
2017-12-02T12:30:19.644Z,20.55
2017-12-02T12:31:22.868Z,19.37
2017-12-02T12:32:25.344Z,16.42
2017-12-02T12:33:27.885Z,15.38
2017-12-02T12:34:30.374Z,15.55
2017-12-02T12:35:33.673Z,15.32
2017-12-02T12:36:36.184Z,16.33
2017-12-02T12:37:38.707Z,15.80
2017-12-02T12:38:41.235Z,15.73
2017-12-02T12:39:43.713Z,15.45
2017-12-02T12:40:46.983Z,15.70
2017-12-02T12:41:49.467Z,14.57
2017-12-02T12:42:52.001Z,14.52
2017-12-02T12:43:55.255Z,15.50
2017-12-02T12:44:58.493Z,15.90
2017-12-02T12:46:01.783Z,15.05
2017-12-02T12:47:04.263Z,14.82
2017-12-02T12:48:07.548Z,15.85
2017-12-02T12:49:10.039Z,16.25
2017-12-02T12:50:12.677Z,15.88
2017-12-02T12:51:15.234Z,15.90
2017-12-02T12:52:17.747Z,16.25
2017-12-02T12:53:20.211Z,16.52
2017-12-02T12:54:22.750Z,15.77
2017-12-02T12:55:25.212Z,16.30
2017-12-02T12:56:27.788Z,17.10
2017-12-02T12:57:31.087Z,16.90
2017-12-02T12:58:33.559Z,29.73
2017-12-02T12:59:36.069Z,20.35
2017-12-02T13:00:39.509Z,30.33
2017-12-02T13:01:41.978Z,18.23
2017-12-02T13:02:45.230Z,16.00
2017-12-02T13:03:47.797Z,15.02
2017-12-02T13:04:50.294Z,16.52
2017-12-02T13:05:52.800Z,16.42
2017-12-02T13:06:56.071Z,17.17
2017-12-02T13:07:58.590Z,16.55
2017-12-02T13:09:01.078Z,17.35
2017-12-02T13:10:03.542Z,17.40
2017-12-02T13:11:06.016Z,17.00
2017-12-02T13:12:08.540Z,17.35
2017-12-02T13:13:11.832Z,16.90
2017-12-02T13:14:14.419Z,18.20
2017-12-02T13:15:16.947Z,16.05
2017-12-02T13:16:19.451Z,17.15
2017-12-02T13:17:21.929Z,17.67
2017-12-02T13:18:24.382Z,18.62
2017-12-02T13:19:26.878Z,19.55
2017-12-02T13:20:29.350Z,18.45
2017-12-02T13:21:31.933Z,18.08
2017-12-02T13:22:35.171Z,18.73
2017-12-02T13:23:38.435Z,19.17
2017-12-02T13:24:41.222Z,19.58
2017-12-02T13:25:43.716Z,18.92
2017-12-02T13:26:46.223Z,18.23
2017-12-02T13:27:48.697Z,19.25
2017-12-02T13:28:51.195Z,19.23